sensor_id;sensor_type;location;lat;lon;timestamp;temperature;humidity
69189;DHT22;56302;52.322;5.926;2024-03-06T00:01:52;6.10;97.40
69189;DHT22;56302;52.322;5.926;2024-03-06T00:04:18;6.00;97.50
69189;DHT22;56302;52.322;5.926;2024-03-06T00:06:43;6.00;97.50
69189;DHT22;56302;52.322;5.926;2024-03-06T00:09:09;6.00;97.50
69189;DHT22;56302;52.322;5.926;2024-03-06T00:11:35;6.00;97.60
69189;DHT22;56302;52.322;5.926;2024-03-06T00:14:03;6.00;97.60
69189;DHT22;56302;52.322;5.926;2024-03-06T00:16:31;6.00;97.70
69189;DHT22;56302;52.322;5.926;2024-03-06T00:18:56;6.00;97.60
69189;DHT22;56302;52.322;5.926;2024-03-06T00:21:22;6.00;97.60
69189;DHT22;56302;52.322;5.926;2024-03-06T00:23:48;6.00;97.70
69189;DHT22;56302;52.322;5.926;2024-03-06T00:26:13;6.00;97.70
69189;DHT22;56302;52.322;5.926;2024-03-06T00:28:39;6.00;97.70
69189;DHT22;56302;52.322;5.926;2024-03-06T00:31:05;6.00;97.80
69189;DHT22;56302;52.322;5.926;2024-03-06T00:33:31;6.00;98.00
69189;DHT22;56302;52.322;5.926;2024-03-06T00:35:56;6.00;98.00
69189;DHT22;56302;52.322;5.926;2024-03-06T00:38:22;5.90;98.20
69189;DHT22;56302;52.322;5.926;2024-03-06T00:40:48;5.90;98.50
69189;DHT22;56302;52.322;5.926;2024-03-06T00:43:14;5.90;98.60
69189;DHT22;56302;52.322;5.926;2024-03-06T00:45:40;5.90;98.60
69189;DHT22;56302;52.322;5.926;2024-03-06T00:48:06;5.90;98.60
69189;DHT22;56302;52.322;5.926;2024-03-06T00:50:31;6.00;98.50
69189;DHT22;56302;52.322;5.926;2024-03-06T00:52:57;5.90;98.50
69189;DHT22;56302;52.322;5.926;2024-03-06T00:55:23;6.00;98.40
69189;DHT22;56302;52.322;5.926;2024-03-06T00:57:49;6.00;98.30
69189;DHT22;56302;52.322;5.926;2024-03-06T01:00:15;5.90;98.30
69189;DHT22;56302;52.322;5.926;2024-03-06T01:02:41;6.00;98.20
69189;DHT22;56302;52.322;5.926;2024-03-06T01:05:07;5.90;98.30
69189;DHT22;56302;52.322;5.926;2024-03-06T01:07:35;5.90;98.50
69189;DHT22;56302;52.322;5.926;2024-03-06T01:10:03;5.90;98.50
69189;DHT22;56302;52.322;5.926;2024-03-06T01:12:28;5.90;98.50
69189;DHT22;56302;52.322;5.926;2024-03-06T01:14:54;5.90;98.90
69189;DHT22;56302;52.322;5.926;2024-03-06T01:17:20;5.90;98.80
69189;DHT22;56302;52.322;5.926;2024-03-06T01:19:46;5.90;98.90
69189;DHT22;56302;52.322;5.926;2024-03-06T01:22:11;5.90;99.00
69189;DHT22;56302;52.322;5.926;2024-03-06T01:24:40;5.90;99.10
69189;DHT22;56302;52.322;5.926;2024-03-06T01:27:05;5.90;99.30
69189;DHT22;56302;52.322;5.926;2024-03-06T01:29:31;5.80;99.50
69189;DHT22;56302;52.322;5.926;2024-03-06T01:31:57;5.80;99.60
69189;DHT22;56302;52.322;5.926;2024-03-06T01:34:23;5.80;99.60
69189;DHT22;56302;52.322;5.926;2024-03-06T01:36:48;5.80;99.50
69189;DHT22;56302;52.322;5.926;2024-03-06T01:39:14;5.90;99.50
69189;DHT22;56302;52.322;5.926;2024-03-06T01:41:47;5.90;99.40
69189;DHT22;56302;52.322;5.926;2024-03-06T01:44:13;5.90;99.40
69189;DHT22;56302;52.322;5.926;2024-03-06T01:46:39;5.90;99.50
69189;DHT22;56302;52.322;5.926;2024-03-06T01:49:06;5.90;99.50
69189;DHT22;56302;52.322;5.926;2024-03-06T01:51:32;5.90;99.40
69189;DHT22;56302;52.322;5.926;2024-03-06T01:53:58;5.90;99.30
69189;DHT22;56302;52.322;5.926;2024-03-06T01:56:27;5.90;99.30
69189;DHT22;56302;52.322;5.926;2024-03-06T01:58:53;5.90;99.30
69189;DHT22;56302;52.322;5.926;2024-03-06T02:01:20;5.90;99.30
69189;DHT22;56302;52.322;5.926;2024-03-06T02:03:47;6.00;99.40
69189;DHT22;56302;52.322;5.926;2024-03-06T02:06:14;5.90;99.50
69189;DHT22;56302;52.322;5.926;2024-03-06T02:08:41;5.90;99.60
69189;DHT22;56302;52.322;5.926;2024-03-06T02:11:06;5.90;99.80
69189;DHT22;56302;52.322;5.926;2024-03-06T02:13:33;5.90;99.90
69189;DHT22;56302;52.322;5.926;2024-03-06T02:15:59;5.90;99.90
69189;DHT22;56302;52.322;5.926;2024-03-06T02:18:25;5.90;99.90
69189;DHT22;56302;52.322;5.926;2024-03-06T02:20:50;5.90;99.90
69189;DHT22;56302;52.322;5.926;2024-03-06T02:23:16;6.00;99.90
69189;DHT22;56302;52.322;5.926;2024-03-06T02:25:46;5.90;99.80
69189;DHT22;56302;52.322;5.926;2024-03-06T02:28:12;6.00;99.70
69189;DHT22;56302;52.322;5.926;2024-03-06T02:30:38;6.00;99.60
69189;DHT22;56302;52.322;5.926;2024-03-06T02:33:04;5.90;99.80
69189;DHT22;56302;52.322;5.926;2024-03-06T02:35:32;5.90;99.90
69189;DHT22;56302;52.322;5.926;2024-03-06T02:37:59;5.90;99.90
69189;DHT22;56302;52.322;5.926;2024-03-06T02:40:25;5.90;99.90
69189;DHT22;56302;52.322;5.926;2024-03-06T02:42:50;5.90;99.90
69189;DHT22;56302;52.322;5.926;2024-03-06T02:45:16;5.90;99.90
69189;DHT22;56302;52.322;5.926;2024-03-06T02:47:42;5.90;99.90
69189;DHT22;56302;52.322;5.926;2024-03-06T02:50:08;5.90;99.90
69189;DHT22;56302;52.322;5.926;2024-03-06T02:52:33;6.00;99.90
69189;DHT22;56302;52.322;5.926;2024-03-06T02:54:59;5.90;99.90
69189;DHT22;56302;52.322;5.926;2024-03-06T02:57:28;5.90;99.90
69189;DHT22;56302;52.322;5.926;2024-03-06T02:59:56;5.90;99.90
69189;DHT22;56302;52.322;5.926;2024-03-06T03:02:21;5.90;99.90
69189;DHT22;56302;52.322;5.926;2024-03-06T03:04:47;5.90;99.90
69189;DHT22;56302;52.322;5.926;2024-03-06T03:07:13;5.90;99.90
69189;DHT22;56302;52.322;5.926;2024-03-06T03:09:38;5.90;99.90
69189;DHT22;56302;52.322;5.926;2024-03-06T03:12:04;5.90;99.90
69189;DHT22;56302;52.322;5.926;2024-03-06T03:14:30;5.90;99.90
69189;DHT22;56302;52.322;5.926;2024-03-06T03:16:56;5.90;99.90
69189;DHT22;56302;52.322;5.926;2024-03-06T03:19:21;5.90;99.90
69189;DHT22;56302;52.322;5.926;2024-03-06T03:21:47;5.90;99.90
69189;DHT22;56302;52.322;5.926;2024-03-06T03:24:12;5.90;99.90
69189;DHT22;56302;52.322;5.926;2024-03-06T03:26:38;5.90;99.90
69189;DHT22;56302;52.322;5.926;2024-03-06T03:29:04;5.90;99.90
69189;DHT22;56302;52.322;5.926;2024-03-06T03:31:30;5.90;99.90
69189;DHT22;56302;52.322;5.926;2024-03-06T03:33:56;5.90;99.90
69189;DHT22;56302;52.322;5.926;2024-03-06T03:36:22;5.90;99.90
69189;DHT22;56302;52.322;5.926;2024-03-06T03:38:48;5.90;99.90
69189;DHT22;56302;52.322;5.926;2024-03-06T03:41:14;5.80;99.90
69189;DHT22;56302;52.322;5.926;2024-03-06T03:43:40;5.80;99.90
69189;DHT22;56302;52.322;5.926;2024-03-06T03:46:05;5.80;99.90
69189;DHT22;56302;52.322;5.926;2024-03-06T03:48:32;5.80;99.90
69189;DHT22;56302;52.322;5.926;2024-03-06T03:51:01;5.80;99.90
69189;DHT22;56302;52.322;5.926;2024-03-06T03:53:28;5.80;99.90
69189;DHT22;56302;52.322;5.926;2024-03-06T03:55:54;5.80;99.90
69189;DHT22;56302;52.322;5.926;2024-03-06T03:58:20;5.70;99.90
69189;DHT22;56302;52.322;5.926;2024-03-06T04:00:45;5.70;99.90
69189;DHT22;56302;52.322;5.926;2024-03-06T04:03:11;5.60;99.90
69189;DHT22;56302;52.322;5.926;2024-03-06T04:05:36;5.60;99.90
69189;DHT22;56302;52.322;5.926;2024-03-06T04:08:02;5.50;99.90
69189;DHT22;56302;52.322;5.926;2024-03-06T04:10:28;5.50;99.90
69189;DHT22;56302;52.322;5.926;2024-03-06T04:12:53;5.50;99.90
69189;DHT22;56302;52.322;5.926;2024-03-06T04:15:20;5.40;99.60
69189;DHT22;56302;52.322;5.926;2024-03-06T04:17:45;5.40;99.40
69189;DHT22;56302;52.322;5.926;2024-03-06T04:20:11;5.30;99.10
69189;DHT22;56302;52.322;5.926;2024-03-06T04:22:38;5.30;98.90
69189;DHT22;56302;52.322;5.926;2024-03-06T04:25:04;5.30;98.60
69189;DHT22;56302;52.322;5.926;2024-03-06T04:27:30;5.20;98.40
69189;DHT22;56302;52.322;5.926;2024-03-06T04:29:56;5.20;98.20
69189;DHT22;56302;52.322;5.926;2024-03-06T04:32:21;5.10;98.00
69189;DHT22;56302;52.322;5.926;2024-03-06T04:34:47;4.90;98.00
69189;DHT22;56302;52.322;5.926;2024-03-06T04:37:13;4.80;98.80
69189;DHT22;56302;52.322;5.926;2024-03-06T04:39:38;4.60;99.40
69189;DHT22;56302;52.322;5.926;2024-03-06T04:42:04;4.60;99.90
69189;DHT22;56302;52.322;5.926;2024-03-06T04:44:34;4.50;99.90
69189;DHT22;56302;52.322;5.926;2024-03-06T04:46:59;4.30;99.90
69189;DHT22;56302;52.322;5.926;2024-03-06T04:49:25;4.20;99.90
69189;DHT22;56302;52.322;5.926;2024-03-06T04:51:51;4.00;99.90
69189;DHT22;56302;52.322;5.926;2024-03-06T04:54:17;3.90;99.90
69189;DHT22;56302;52.322;5.926;2024-03-06T04:56:42;3.80;99.90
69189;DHT22;56302;52.322;5.926;2024-03-06T04:59:08;3.80;99.90
69189;DHT22;56302;52.322;5.926;2024-03-06T05:01:33;3.90;99.90
69189;DHT22;56302;52.322;5.926;2024-03-06T05:03:59;3.90;99.90
69189;DHT22;56302;52.322;5.926;2024-03-06T05:06:24;3.90;99.90
69189;DHT22;56302;52.322;5.926;2024-03-06T05:08:50;4.00;99.90
69189;DHT22;56302;52.322;5.926;2024-03-06T05:11:16;4.10;99.90
69189;DHT22;56302;52.322;5.926;2024-03-06T05:13:41;4.10;99.90
69189;DHT22;56302;52.322;5.926;2024-03-06T05:16:07;4.20;99.90
69189;DHT22;56302;52.322;5.926;2024-03-06T05:18:34;4.20;99.90
69189;DHT22;56302;52.322;5.926;2024-03-06T05:21:00;4.10;99.90
69189;DHT22;56302;52.322;5.926;2024-03-06T05:23:26;4.10;99.90
69189;DHT22;56302;52.322;5.926;2024-03-06T05:25:52;4.10;99.90
69189;DHT22;56302;52.322;5.926;2024-03-06T05:28:18;4.10;99.90
69189;DHT22;56302;52.322;5.926;2024-03-06T05:30:43;4.10;99.90
69189;DHT22;56302;52.322;5.926;2024-03-06T05:33:09;4.00;99.90
69189;DHT22;56302;52.322;5.926;2024-03-06T05:35:34;3.90;99.90
69189;DHT22;56302;52.322;5.926;2024-03-06T05:38:00;3.80;99.90
69189;DHT22;56302;52.322;5.926;2024-03-06T05:40:26;3.80;99.90
69189;DHT22;56302;52.322;5.926;2024-03-06T05:42:51;3.80;99.90
69189;DHT22;56302;52.322;5.926;2024-03-06T05:45:17;3.80;99.90
69189;DHT22;56302;52.322;5.926;2024-03-06T05:47:43;3.80;99.90
69189;DHT22;56302;52.322;5.926;2024-03-06T05:50:09;3.70;99.90
69189;DHT22;56302;52.322;5.926;2024-03-06T05:52:36;3.70;99.90
69189;DHT22;56302;52.322;5.926;2024-03-06T05:55:02;3.70;99.90
69189;DHT22;56302;52.322;5.926;2024-03-06T05:57:27;3.60;99.90
69189;DHT22;56302;52.322;5.926;2024-03-06T05:59:53;3.40;99.90
69189;DHT22;56302;52.322;5.926;2024-03-06T06:02:19;3.30;99.90
69189;DHT22;56302;52.322;5.926;2024-03-06T06:04:47;3.40;99.90
69189;DHT22;56302;52.322;5.926;2024-03-06T06:07:13;3.40;99.90
69189;DHT22;56302;52.322;5.926;2024-03-06T06:09:39;3.30;99.90
69189;DHT22;56302;52.322;5.926;2024-03-06T06:12:04;3.30;99.90
69189;DHT22;56302;52.322;5.926;2024-03-06T06:14:30;3.20;99.90
69189;DHT22;56302;52.322;5.926;2024-03-06T06:16:58;3.30;99.90
69189;DHT22;56302;52.322;5.926;2024-03-06T06:19:24;3.30;99.90
69189;DHT22;56302;52.322;5.926;2024-03-06T06:21:53;3.30;99.90
69189;DHT22;56302;52.322;5.926;2024-03-06T06:24:19;3.30;99.90
69189;DHT22;56302;52.322;5.926;2024-03-06T06:26:45;3.30;99.90
69189;DHT22;56302;52.322;5.926;2024-03-06T06:29:11;3.30;99.90
69189;DHT22;56302;52.322;5.926;2024-03-06T06:31:36;3.40;99.90
69189;DHT22;56302;52.322;5.926;2024-03-06T06:34:02;3.40;99.90
69189;DHT22;56302;52.322;5.926;2024-03-06T06:36:27;3.40;99.90
69189;DHT22;56302;52.322;5.926;2024-03-06T06:38:54;3.40;99.90
69189;DHT22;56302;52.322;5.926;2024-03-06T06:41:20;3.50;99.90
69189;DHT22;56302;52.322;5.926;2024-03-06T06:43:46;3.50;99.90
69189;DHT22;56302;52.322;5.926;2024-03-06T06:46:12;3.60;99.90
69189;DHT22;56302;52.322;5.926;2024-03-06T06:48:37;3.60;99.90
69189;DHT22;56302;52.322;5.926;2024-03-06T06:51:03;3.70;99.90
69189;DHT22;56302;52.322;5.926;2024-03-06T06:53:30;3.80;99.90
69189;DHT22;56302;52.322;5.926;2024-03-06T06:55:56;3.80;99.90
69189;DHT22;56302;52.322;5.926;2024-03-06T06:58:21;3.80;99.90
69189;DHT22;56302;52.322;5.926;2024-03-06T07:00:47;3.90;99.90
69189;DHT22;56302;52.322;5.926;2024-03-06T07:03:13;3.90;99.90
69189;DHT22;56302;52.322;5.926;2024-03-06T07:05:39;4.00;99.90
69189;DHT22;56302;52.322;5.926;2024-03-06T07:08:07;4.00;99.90
69189;DHT22;56302;52.322;5.926;2024-03-06T07:10:32;4.00;99.90
69189;DHT22;56302;52.322;5.926;2024-03-06T07:12:59;4.00;99.90
69189;DHT22;56302;52.322;5.926;2024-03-06T07:15:24;4.00;99.90
69189;DHT22;56302;52.322;5.926;2024-03-06T07:17:50;4.10;99.90
69189;DHT22;56302;52.322;5.926;2024-03-06T07:20:16;4.10;99.90
69189;DHT22;56302;52.322;5.926;2024-03-06T07:22:42;4.10;99.90
69189;DHT22;56302;52.322;5.926;2024-03-06T07:25:08;4.20;99.90
69189;DHT22;56302;52.322;5.926;2024-03-06T07:27:35;4.20;99.90
69189;DHT22;56302;52.322;5.926;2024-03-06T07:30:01;4.30;99.90
69189;DHT22;56302;52.322;5.926;2024-03-06T07:32:26;4.40;99.90
69189;DHT22;56302;52.322;5.926;2024-03-06T07:34:52;4.40;99.90
69189;DHT22;56302;52.322;5.926;2024-03-06T07:37:17;4.40;99.90
69189;DHT22;56302;52.322;5.926;2024-03-06T07:39:44;4.50;99.90
69189;DHT22;56302;52.322;5.926;2024-03-06T07:42:11;4.50;99.90
69189;DHT22;56302;52.322;5.926;2024-03-06T07:44:36;4.50;99.90
69189;DHT22;56302;52.322;5.926;2024-03-06T07:47:02;4.50;99.90
69189;DHT22;56302;52.322;5.926;2024-03-06T07:49:29;4.50;99.90
69189;DHT22;56302;52.322;5.926;2024-03-06T07:51:54;4.50;99.90
69189;DHT22;56302;52.322;5.926;2024-03-06T07:54:20;4.50;99.90
69189;DHT22;56302;52.322;5.926;2024-03-06T07:56:46;4.60;99.90
69189;DHT22;56302;52.322;5.926;2024-03-06T07:59:12;4.70;99.90
69189;DHT22;56302;52.322;5.926;2024-03-06T08:01:38;4.70;99.90
69189;DHT22;56302;52.322;5.926;2024-03-06T08:04:04;4.70;99.90
69189;DHT22;56302;52.322;5.926;2024-03-06T08:06:29;4.60;99.90
69189;DHT22;56302;52.322;5.926;2024-03-06T08:08:59;4.70;99.90
69189;DHT22;56302;52.322;5.926;2024-03-06T08:11:24;4.70;99.90
69189;DHT22;56302;52.322;5.926;2024-03-06T08:13:56;4.70;99.90
69189;DHT22;56302;52.322;5.926;2024-03-06T08:16:22;4.70;99.90
69189;DHT22;56302;52.322;5.926;2024-03-06T08:18:47;4.70;99.90
69189;DHT22;56302;52.322;5.926;2024-03-06T08:21:13;4.70;99.90
69189;DHT22;56302;52.322;5.926;2024-03-06T08:23:38;4.70;99.90
69189;DHT22;56302;52.322;5.926;2024-03-06T08:26:04;4.70;99.90
69189;DHT22;56302;52.322;5.926;2024-03-06T08:28:30;4.70;99.90
69189;DHT22;56302;52.322;5.926;2024-03-06T08:30:56;4.70;99.90
69189;DHT22;56302;52.322;5.926;2024-03-06T08:33:22;4.70;99.90
69189;DHT22;56302;52.322;5.926;2024-03-06T08:35:48;4.60;99.90
69189;DHT22;56302;52.322;5.926;2024-03-06T08:38:13;4.70;99.90
69189;DHT22;56302;52.322;5.926;2024-03-06T08:40:39;4.80;99.90
69189;DHT22;56302;52.322;5.926;2024-03-06T08:43:07;4.70;99.90
69189;DHT22;56302;52.322;5.926;2024-03-06T08:45:34;4.70;99.90
69189;DHT22;56302;52.322;5.926;2024-03-06T08:48:00;4.70;99.90
69189;DHT22;56302;52.322;5.926;2024-03-06T08:50:25;4.70;99.90
69189;DHT22;56302;52.322;5.926;2024-03-06T08:52:51;4.70;99.90
69189;DHT22;56302;52.322;5.926;2024-03-06T08:55:17;4.80;99.90
69189;DHT22;56302;52.322;5.926;2024-03-06T08:57:43;4.80;99.90
69189;DHT22;56302;52.322;5.926;2024-03-06T09:00:09;4.90;99.90
69189;DHT22;56302;52.322;5.926;2024-03-06T09:02:37;5.00;99.90
69189;DHT22;56302;52.322;5.926;2024-03-06T09:05:09;5.10;99.90
69189;DHT22;56302;52.322;5.926;2024-03-06T09:07:36;5.10;99.90
69189;DHT22;56302;52.322;5.926;2024-03-06T09:10:07;5.20;99.90
69189;DHT22;56302;52.322;5.926;2024-03-06T09:12:33;5.20;99.90
69189;DHT22;56302;52.322;5.926;2024-03-06T09:15:00;5.30;99.90
69189;DHT22;56302;52.322;5.926;2024-03-06T09:17:26;5.30;99.90
69189;DHT22;56302;52.322;5.926;2024-03-06T09:19:51;5.30;99.90
69189;DHT22;56302;52.322;5.926;2024-03-06T09:22:17;5.30;99.90
69189;DHT22;56302;52.322;5.926;2024-03-06T09:24:43;5.40;99.90
69189;DHT22;56302;52.322;5.926;2024-03-06T09:27:08;5.40;99.90
69189;DHT22;56302;52.322;5.926;2024-03-06T09:29:34;5.40;99.90
69189;DHT22;56302;52.322;5.926;2024-03-06T09:32:00;5.50;99.90
69189;DHT22;56302;52.322;5.926;2024-03-06T09:34:26;5.60;99.90
69189;DHT22;56302;52.322;5.926;2024-03-06T09:36:51;5.50;99.90
69189;DHT22;56302;52.322;5.926;2024-03-06T09:39:18;5.60;99.90
69189;DHT22;56302;52.322;5.926;2024-03-06T09:41:49;5.60;99.90
69189;DHT22;56302;52.322;5.926;2024-03-06T09:44:16;5.70;99.90
69189;DHT22;56302;52.322;5.926;2024-03-06T09:46:46;5.70;99.90
69189;DHT22;56302;52.322;5.926;2024-03-06T09:49:14;5.70;99.90
69189;DHT22;56302;52.322;5.926;2024-03-06T09:51:43;5.80;99.90
69189;DHT22;56302;52.322;5.926;2024-03-06T09:54:12;5.80;99.90
69189;DHT22;56302;52.322;5.926;2024-03-06T09:56:41;6.00;99.90
69189;DHT22;56302;52.322;5.926;2024-03-06T09:59:08;6.00;99.90
69189;DHT22;56302;52.322;5.926;2024-03-06T10:01:41;6.00;99.90
69189;DHT22;56302;52.322;5.926;2024-03-06T10:04:19;6.10;99.90
69189;DHT22;56302;52.322;5.926;2024-03-06T10:06:46;6.20;99.90
69189;DHT22;56302;52.322;5.926;2024-03-06T10:09:12;6.20;99.90
69189;DHT22;56302;52.322;5.926;2024-03-06T10:11:40;6.20;99.90
69189;DHT22;56302;52.322;5.926;2024-03-06T10:14:08;6.30;99.90
69189;DHT22;56302;52.322;5.926;2024-03-06T10:16:33;6.40;99.90
69189;DHT22;56302;52.322;5.926;2024-03-06T10:19:17;6.40;99.90
69189;DHT22;56302;52.322;5.926;2024-03-06T10:21:46;6.50;99.90
69189;DHT22;56302;52.322;5.926;2024-03-06T10:24:11;6.60;99.90
69189;DHT22;56302;52.322;5.926;2024-03-06T10:26:38;6.70;99.90
69189;DHT22;56302;52.322;5.926;2024-03-06T10:29:03;6.80;99.90
69189;DHT22;56302;52.322;5.926;2024-03-06T10:31:29;6.80;99.90
69189;DHT22;56302;52.322;5.926;2024-03-06T10:33:55;6.80;99.80
69189;DHT22;56302;52.322;5.926;2024-03-06T10:36:20;6.80;99.60
69189;DHT22;56302;52.322;5.926;2024-03-06T10:38:48;6.90;99.90
69189;DHT22;56302;52.322;5.926;2024-03-06T10:41:19;7.10;99.70
69189;DHT22;56302;52.322;5.926;2024-03-06T10:43:47;7.10;99.00
69189;DHT22;56302;52.322;5.926;2024-03-06T10:46:18;7.20;99.20
69189;DHT22;56302;52.322;5.926;2024-03-06T10:48:45;7.30;97.80
69189;DHT22;56302;52.322;5.926;2024-03-06T10:51:13;7.20;97.30
69189;DHT22;56302;52.322;5.926;2024-03-06T10:53:40;7.20;97.20
69189;DHT22;56302;52.322;5.926;2024-03-06T10:56:08;7.20;97.40
69189;DHT22;56302;52.322;5.926;2024-03-06T10:58:35;7.30;97.30
69189;DHT22;56302;52.322;5.926;2024-03-06T11:01:01;7.40;97.20
69189;DHT22;56302;52.322;5.926;2024-03-06T11:03:29;7.50;97.10
69189;DHT22;56302;52.322;5.926;2024-03-06T11:05:56;7.60;97.00
69189;DHT22;56302;52.322;5.926;2024-03-06T11:08:22;7.60;96.60
69189;DHT22;56302;52.322;5.926;2024-03-06T11:10:48;7.70;96.00
69189;DHT22;56302;52.322;5.926;2024-03-06T11:15:46;7.70;96.00
69189;DHT22;56302;52.322;5.926;2024-03-06T11:23:33;7.80;95.00
69189;DHT22;56302;52.322;5.926;2024-03-06T11:26:05;7.80;95.10
69189;DHT22;56302;52.322;5.926;2024-03-06T11:28:33;7.80;95.00
69189;DHT22;56302;52.322;5.926;2024-03-06T11:31:10;7.90;94.70
69189;DHT22;56302;52.322;5.926;2024-03-06T11:33:52;8.10;95.10
69189;DHT22;56302;52.322;5.926;2024-03-06T11:36:19;8.20;94.90
69189;DHT22;56302;52.322;5.926;2024-03-06T11:39:07;8.30;94.00
69189;DHT22;56302;52.322;5.926;2024-03-06T11:41:50;8.40;94.10
69189;DHT22;56302;52.322;5.926;2024-03-06T11:44:17;8.60;92.90
69189;DHT22;56302;52.322;5.926;2024-03-06T11:49:24;8.90;92.00
69189;DHT22;56302;52.322;5.926;2024-03-06T11:52:12;9.10;91.60
69189;DHT22;56302;52.322;5.926;2024-03-06T11:54:37;9.20;90.60
69189;DHT22;56302;52.322;5.926;2024-03-06T11:57:04;9.30;90.70
69189;DHT22;56302;52.322;5.926;2024-03-06T11:59:31;9.50;89.90
69189;DHT22;56302;52.322;5.926;2024-03-06T12:01:59;9.70;88.10
69189;DHT22;56302;52.322;5.926;2024-03-06T12:04:28;9.60;86.80
69189;DHT22;56302;52.322;5.926;2024-03-06T12:06:57;9.60;86.60
69189;DHT22;56302;52.322;5.926;2024-03-06T12:09:23;9.90;86.80
69189;DHT22;56302;52.322;5.926;2024-03-06T12:11:49;10.10;86.80
69189;DHT22;56302;52.322;5.926;2024-03-06T12:14:18;10.20;85.90
69189;DHT22;56302;52.322;5.926;2024-03-06T12:16:55;10.10;86.00
69189;DHT22;56302;52.322;5.926;2024-03-06T12:19:21;10.30;85.50
69189;DHT22;56302;52.322;5.926;2024-03-06T12:21:47;10.50;85.00
69189;DHT22;56302;52.322;5.926;2024-03-06T12:24:16;10.60;86.00
69189;DHT22;56302;52.322;5.926;2024-03-06T12:26:44;10.80;85.10
69189;DHT22;56302;52.322;5.926;2024-03-06T12:29:11;10.80;81.40
69189;DHT22;56302;52.322;5.926;2024-03-06T12:31:38;10.90;81.40
69189;DHT22;56302;52.322;5.926;2024-03-06T12:34:05;10.80;82.80
69189;DHT22;56302;52.322;5.926;2024-03-06T12:36:32;11.00;81.90
69189;DHT22;56302;52.322;5.926;2024-03-06T12:39:02;11.20;80.40
69189;DHT22;56302;52.322;5.926;2024-03-06T12:41:29;11.30;80.40
69189;DHT22;56302;52.322;5.926;2024-03-06T12:43:56;11.60;78.50
69189;DHT22;56302;52.322;5.926;2024-03-06T12:46:23;11.70;75.10
69189;DHT22;56302;52.322;5.926;2024-03-06T12:48:49;11.80;76.70
69189;DHT22;56302;52.322;5.926;2024-03-06T12:51:15;11.80;75.30
69189;DHT22;56302;52.322;5.926;2024-03-06T12:53:41;12.00;75.20
69189;DHT22;56302;52.322;5.926;2024-03-06T12:56:06;12.10;75.00
69189;DHT22;56302;52.322;5.926;2024-03-06T12:58:33;12.20;74.20
69189;DHT22;56302;52.322;5.926;2024-03-06T13:01:00;12.20;73.90
69189;DHT22;56302;52.322;5.926;2024-03-06T13:03:27;12.30;71.60
69189;DHT22;56302;52.322;5.926;2024-03-06T13:05:53;11.90;72.30
69189;DHT22;56302;52.322;5.926;2024-03-06T13:08:18;11.80;71.90
69189;DHT22;56302;52.322;5.926;2024-03-06T13:10:44;11.70;73.70
69189;DHT22;56302;52.322;5.926;2024-03-06T13:13:10;11.30;75.50
69189;DHT22;56302;52.322;5.926;2024-03-06T13:15:36;11.40;76.40
69189;DHT22;56302;52.322;5.926;2024-03-06T13:18:05;11.00;75.00
69189;DHT22;56302;52.322;5.926;2024-03-06T13:20:31;10.90;76.20
69189;DHT22;56302;52.322;5.926;2024-03-06T13:22:57;10.80;75.50
69189;DHT22;56302;52.322;5.926;2024-03-06T13:25:22;10.80;76.20
69189;DHT22;56302;52.322;5.926;2024-03-06T13:27:49;10.70;76.40
69189;DHT22;56302;52.322;5.926;2024-03-06T13:30:14;10.70;76.10
69189;DHT22;56302;52.322;5.926;2024-03-06T13:32:40;10.60;76.00
69189;DHT22;56302;52.322;5.926;2024-03-06T13:35:08;10.60;75.50
69189;DHT22;56302;52.322;5.926;2024-03-06T13:37:38;10.50;76.40
69189;DHT22;56302;52.322;5.926;2024-03-06T13:40:04;10.50;75.90
69189;DHT22;56302;52.322;5.926;2024-03-06T13:42:32;10.50;77.60
69189;DHT22;56302;52.322;5.926;2024-03-06T13:44:58;10.50;77.10
69189;DHT22;56302;52.322;5.926;2024-03-06T13:47:23;10.40;77.70
69189;DHT22;56302;52.322;5.926;2024-03-06T13:49:49;10.30;77.10
69189;DHT22;56302;52.322;5.926;2024-03-06T13:52:15;10.30;78.30
69189;DHT22;56302;52.322;5.926;2024-03-06T13:54:45;10.20;76.30
69189;DHT22;56302;52.322;5.926;2024-03-06T13:57:11;10.30;78.20
69189;DHT22;56302;52.322;5.926;2024-03-06T13:59:37;10.40;78.30
69189;DHT22;56302;52.322;5.926;2024-03-06T14:02:03;10.50;78.70
69189;DHT22;56302;52.322;5.926;2024-03-06T14:04:29;10.40;76.40
69189;DHT22;56302;52.322;5.926;2024-03-06T14:06:56;10.40;77.90
69189;DHT22;56302;52.322;5.926;2024-03-06T14:09:25;10.30;77.30
69189;DHT22;56302;52.322;5.926;2024-03-06T14:11:51;10.20;78.30
69189;DHT22;56302;52.322;5.926;2024-03-06T14:14:17;10.00;77.10
69189;DHT22;56302;52.322;5.926;2024-03-06T14:16:44;9.90;77.00
69189;DHT22;56302;52.322;5.926;2024-03-06T14:19:10;9.90;78.30
69189;DHT22;56302;52.322;5.926;2024-03-06T14:21:36;9.90;78.20
69189;DHT22;56302;52.322;5.926;2024-03-06T14:24:02;9.90;77.70
69189;DHT22;56302;52.322;5.926;2024-03-06T14:26:32;9.90;78.80
69189;DHT22;56302;52.322;5.926;2024-03-06T14:28:59;10.00;77.80
69189;DHT22;56302;52.322;5.926;2024-03-06T14:31:24;10.00;76.60
69189;DHT22;56302;52.322;5.926;2024-03-06T14:33:51;10.10;76.00
69189;DHT22;56302;52.322;5.926;2024-03-06T14:36:17;10.10;76.40
69189;DHT22;56302;52.322;5.926;2024-03-06T14:38:43;10.30;76.00
69189;DHT22;56302;52.322;5.926;2024-03-06T14:41:16;10.30;73.90
69189;DHT22;56302;52.322;5.926;2024-03-06T14:43:41;10.30;74.40
69189;DHT22;56302;52.322;5.926;2024-03-06T14:46:07;10.40;75.00
69189;DHT22;56302;52.322;5.926;2024-03-06T14:48:34;10.50;74.40
69189;DHT22;56302;52.322;5.926;2024-03-06T14:51:03;10.50;75.10
69189;DHT22;56302;52.322;5.926;2024-03-06T14:53:28;10.50;75.00
69189;DHT22;56302;52.322;5.926;2024-03-06T14:55:57;10.50;74.90
69189;DHT22;56302;52.322;5.926;2024-03-06T14:58:23;10.60;75.30
69189;DHT22;56302;52.322;5.926;2024-03-06T15:00:49;10.70;75.40
69189;DHT22;56302;52.322;5.926;2024-03-06T15:03:16;10.70;75.20
69189;DHT22;56302;52.322;5.926;2024-03-06T15:05:45;10.80;75.00
69189;DHT22;56302;52.322;5.926;2024-03-06T15:08:11;10.80;74.70
69189;DHT22;56302;52.322;5.926;2024-03-06T15:10:37;10.70;74.50
69189;DHT22;56302;52.322;5.926;2024-03-06T15:13:03;10.60;74.60
69189;DHT22;56302;52.322;5.926;2024-03-06T15:15:28;10.50;74.80
69189;DHT22;56302;52.322;5.926;2024-03-06T15:17:54;10.40;75.30
69189;DHT22;56302;52.322;5.926;2024-03-06T15:20:20;10.30;74.70
69189;DHT22;56302;52.322;5.926;2024-03-06T15:22:45;10.20;75.40
69189;DHT22;56302;52.322;5.926;2024-03-06T15:25:12;10.30;75.60
69189;DHT22;56302;52.322;5.926;2024-03-06T15:27:39;10.30;76.00
69189;DHT22;56302;52.322;5.926;2024-03-06T15:30:06;10.30;75.80
69189;DHT22;56302;52.322;5.926;2024-03-06T15:32:33;10.30;75.40
69189;DHT22;56302;52.322;5.926;2024-03-06T15:34:59;10.30;75.40
69189;DHT22;56302;52.322;5.926;2024-03-06T15:37:25;10.20;76.10
69189;DHT22;56302;52.322;5.926;2024-03-06T15:39:55;10.20;76.20
69189;DHT22;56302;52.322;5.926;2024-03-06T15:42:22;10.20;76.90
69189;DHT22;56302;52.322;5.926;2024-03-06T15:44:50;10.20;76.30
69189;DHT22;56302;52.322;5.926;2024-03-06T15:47:17;10.10;76.10
69189;DHT22;56302;52.322;5.926;2024-03-06T15:49:43;10.10;75.50